KBIL/BIL METAR and TAF weather

Enter ICAO airport designator
Station Type Date Time Source
KBIL METAR 2020/06/03 20:53 UTC NOAA

KBIL 032053Z 22009KT 10SM FEW080 SCT150 27/05 A2993 RMK AO2 SLP102 T02720050 58020


Station Type Date Time Source
KBIL Decoded METAR 2020/06/03 20:53 UTC NOAA

LOGAN INTERNATIONAL AIRPORT, MT, United States (KBIL) 45-49N 108-33W 1091M
Jun 03, 2020 - 04:53 PM EDT / 2020.06.03 2053 UTC
Wind: from the SW (220 degrees) at 10 MPH (9 KT):0
Visibility: 10 mile(s):0
Sky conditions: partly cloudy
Temperature: 81.0 F (27.2 C)
Dew Point: 41.0 F (5.0 C)
Relative Humidity: 24%
Pressure (altimeter): 29.93 in. Hg (1013 hPa)
Pressure tendency: 0.06 inches (2.0 hPa) lower than three hours ago
ob: KBIL 032053Z 22009KT 10SM FEW080 SCT150 27/05 A2993 RMK AO2 SLP102 T02720050 58020
cycle: 21

Station Type Date Time Source
KBIL TAF 2020/06/03 18:39 UTC NOAA

TAF KBIL 031736Z 0318/0418 31010KT P6SM BKN200
FM032200 30012KT P6SM VCSH SCT080 BKN120
FM040300 28006KT P6SM SCT200
FM041500 32010KT P6SM SCT100 BKN200

Example: see airport list